sensor_id;sensor_type;location;lat;lon;timestamp;temperature;humidity
69418;DHT22;56610;48.872;2.400;2022-12-29T00:01:49;12.80;99.90
69418;DHT22;56610;48.872;2.400;2022-12-29T00:04:15;12.90;99.90
69418;DHT22;56610;48.872;2.400;2022-12-29T00:06:42;12.90;99.90
69418;DHT22;56610;48.872;2.400;2022-12-29T00:09:08;12.90;99.90
69418;DHT22;56610;48.872;2.400;2022-12-29T00:11:35;13.00;99.90
69418;DHT22;56610;48.872;2.400;2022-12-29T00:14:01;13.00;99.90
69418;DHT22;56610;48.872;2.400;2022-12-29T00:16:45;13.00;99.90
69418;DHT22;56610;48.872;2.400;2022-12-29T00:19:12;13.00;99.90
69418;DHT22;56610;48.872;2.400;2022-12-29T00:21:57;13.00;99.90
69418;DHT22;56610;48.872;2.400;2022-12-29T00:24:41;12.90;99.90
69418;DHT22;56610;48.872;2.400;2022-12-29T00:27:29;13.00;99.90
69418;DHT22;56610;48.872;2.400;2022-12-29T00:30:18;12.90;99.90
69418;DHT22;56610;48.872;2.400;2022-12-29T00:33:15;13.00;99.90
69418;DHT22;56610;48.872;2.400;2022-12-29T00:36:11;12.90;99.90
69418;DHT22;56610;48.872;2.400;2022-12-29T00:38:44;12.90;99.90
69418;DHT22;56610;48.872;2.400;2022-12-29T00:41:29;12.90;99.90
69418;DHT22;56610;48.872;2.400;2022-12-29T00:44:14;12.90;99.90
69418;DHT22;56610;48.872;2.400;2022-12-29T00:46:42;12.90;99.90
69418;DHT22;56610;48.872;2.400;2022-12-29T00:49:10;12.80;99.90
69418;DHT22;56610;48.872;2.400;2022-12-29T00:52:00;12.90;99.90
69418;DHT22;56610;48.872;2.400;2022-12-29T00:54:27;12.90;99.90
69418;DHT22;56610;48.872;2.400;2022-12-29T00:56:53;12.80;99.90
69418;DHT22;56610;48.872;2.400;2022-12-29T00:59:19;12.80;99.90
69418;DHT22;56610;48.872;2.400;2022-12-29T01:01:46;12.90;99.90
69418;DHT22;56610;48.872;2.400;2022-12-29T01:04:12;12.80;99.90
69418;DHT22;56610;48.872;2.400;2022-12-29T01:06:39;12.70;99.90
69418;DHT22;56610;48.872;2.400;2022-12-29T01:09:06;12.70;99.90
69418;DHT22;56610;48.872;2.400;2022-12-29T01:11:50;12.80;99.90
69418;DHT22;56610;48.872;2.400;2022-12-29T01:14:17;12.70;99.90
69418;DHT22;56610;48.872;2.400;2022-12-29T01:16:44;12.80;99.90
69418;DHT22;56610;48.872;2.400;2022-12-29T01:19:09;12.80;99.90
69418;DHT22;56610;48.872;2.400;2022-12-29T01:21:35;12.80;99.90
69418;DHT22;56610;48.872;2.400;2022-12-29T01:24:01;12.90;99.90
69418;DHT22;56610;48.872;2.400;2022-12-29T01:26:26;12.90;99.90
69418;DHT22;56610;48.872;2.400;2022-12-29T01:28:52;13.00;99.90
69418;DHT22;56610;48.872;2.400;2022-12-29T01:31:18;13.20;99.90
69418;DHT22;56610;48.872;2.400;2022-12-29T01:33:44;13.30;99.90
69418;DHT22;56610;48.872;2.400;2022-12-29T01:36:14;13.40;99.90
69418;DHT22;56610;48.872;2.400;2022-12-29T01:38:40;13.40;99.90
69418;DHT22;56610;48.872;2.400;2022-12-29T01:41:08;13.40;99.90
69418;DHT22;56610;48.872;2.400;2022-12-29T01:43:41;13.30;99.90
69418;DHT22;56610;48.872;2.400;2022-12-29T01:48:47;13.30;99.90
69418;DHT22;56610;48.872;2.400;2022-12-29T01:51:15;13.30;99.90
69418;DHT22;56610;48.872;2.400;2022-12-29T01:53:42;13.30;99.90
69418;DHT22;56610;48.872;2.400;2022-12-29T01:56:10;13.30;99.90
69418;DHT22;56610;48.872;2.400;2022-12-29T01:58:40;13.30;99.90
69418;DHT22;56610;48.872;2.400;2022-12-29T02:01:07;13.40;99.90
69418;DHT22;56610;48.872;2.400;2022-12-29T02:03:33;13.40;99.90
69418;DHT22;56610;48.872;2.400;2022-12-29T02:06:12;13.40;99.90
69418;DHT22;56610;48.872;2.400;2022-12-29T02:08:39;13.40;99.90
69418;DHT22;56610;48.872;2.400;2022-12-29T02:11:05;13.40;99.90
69418;DHT22;56610;48.872;2.400;2022-12-29T02:13:31;13.40;99.90
69418;DHT22;56610;48.872;2.400;2022-12-29T02:18:43;13.40;99.90
69418;DHT22;56610;48.872;2.400;2022-12-29T02:32:54;12.90;99.90
69418;DHT22;56610;48.872;2.400;2022-12-29T02:35:33;12.80;99.90
69418;DHT22;56610;48.872;2.400;2022-12-29T02:38:19;12.70;99.90
69418;DHT22;56610;48.872;2.400;2022-12-29T02:40:53;12.60;99.90
69418;DHT22;56610;48.872;2.400;2022-12-29T02:51:04;12.80;99.90
69418;DHT22;56610;48.872;2.400;2022-12-29T02:53:34;12.90;99.90
69418;DHT22;56610;48.872;2.400;2022-12-29T02:56:20;13.00;99.90
69418;DHT22;56610;48.872;2.400;2022-12-29T02:58:46;12.90;99.90
69418;DHT22;56610;48.872;2.400;2022-12-29T03:01:28;12.90;99.90
69418;DHT22;56610;48.872;2.400;2022-12-29T03:09:43;13.10;99.90
69418;DHT22;56610;48.872;2.400;2022-12-29T03:12:34;13.00;99.90
69418;DHT22;56610;48.872;2.400;2022-12-29T03:15:33;13.10;99.90
69418;DHT22;56610;48.872;2.400;2022-12-29T03:21:31;13.00;99.90
69418;DHT22;56610;48.872;2.400;2022-12-29T03:24:15;13.00;99.90
69418;DHT22;56610;48.872;2.400;2022-12-29T03:26:43;12.90;99.90
69418;DHT22;56610;48.872;2.400;2022-12-29T03:29:11;12.80;99.90
69418;DHT22;56610;48.872;2.400;2022-12-29T03:31:38;12.80;99.90
69418;DHT22;56610;48.872;2.400;2022-12-29T03:34:05;12.80;99.90
69418;DHT22;56610;48.872;2.400;2022-12-29T03:36:39;13.00;99.90
69418;DHT22;56610;48.872;2.400;2022-12-29T03:39:12;13.00;99.90
69418;DHT22;56610;48.872;2.400;2022-12-29T03:41:41;13.00;99.90
69418;DHT22;56610;48.872;2.400;2022-12-29T03:44:08;13.10;99.90
69418;DHT22;56610;48.872;2.400;2022-12-29T03:46:34;13.10;99.90
69418;DHT22;56610;48.872;2.400;2022-12-29T03:48:59;13.20;99.90
69418;DHT22;56610;48.872;2.400;2022-12-29T03:51:25;13.40;99.90
69418;DHT22;56610;48.872;2.400;2022-12-29T03:53:50;13.20;99.90
69418;DHT22;56610;48.872;2.400;2022-12-29T03:56:16;13.30;99.90
69418;DHT22;56610;48.872;2.400;2022-12-29T03:58:42;13.30;99.90
69418;DHT22;56610;48.872;2.400;2022-12-29T04:01:08;13.10;99.90
69418;DHT22;56610;48.872;2.400;2022-12-29T04:03:33;13.10;99.90
69418;DHT22;56610;48.872;2.400;2022-12-29T04:05:59;13.00;99.90
69418;DHT22;56610;48.872;2.400;2022-12-29T04:08:24;13.10;99.90
69418;DHT22;56610;48.872;2.400;2022-12-29T04:10:50;13.10;99.90
69418;DHT22;56610;48.872;2.400;2022-12-29T04:13:16;13.00;99.90
69418;DHT22;56610;48.872;2.400;2022-12-29T04:15:45;13.00;99.90
69418;DHT22;56610;48.872;2.400;2022-12-29T04:18:12;13.00;99.90
69418;DHT22;56610;48.872;2.400;2022-12-29T04:20:37;13.00;99.90
69418;DHT22;56610;48.872;2.400;2022-12-29T04:23:21;13.00;99.90
69418;DHT22;56610;48.872;2.400;2022-12-29T04:25:47;13.10;99.90
69418;DHT22;56610;48.872;2.400;2022-12-29T04:28:14;13.10;99.90
69418;DHT22;56610;48.872;2.400;2022-12-29T04:30:39;13.20;99.90
69418;DHT22;56610;48.872;2.400;2022-12-29T04:33:06;13.20;99.90
69418;DHT22;56610;48.872;2.400;2022-12-29T04:35:32;13.00;99.90
69418;DHT22;56610;48.872;2.400;2022-12-29T04:37:57;13.10;99.90
69418;DHT22;56610;48.872;2.400;2022-12-29T04:40:23;13.00;99.90
69418;DHT22;56610;48.872;2.400;2022-12-29T04:42:49;13.00;99.90
69418;DHT22;56610;48.872;2.400;2022-12-29T04:45:15;13.10;99.90
69418;DHT22;56610;48.872;2.400;2022-12-29T04:47:40;13.10;99.90
69418;DHT22;56610;48.872;2.400;2022-12-29T04:50:06;13.00;99.90
69418;DHT22;56610;48.872;2.400;2022-12-29T04:52:32;13.00;99.90
69418;DHT22;56610;48.872;2.400;2022-12-29T04:54:58;13.10;99.90
69418;DHT22;56610;48.872;2.400;2022-12-29T04:57:24;13.20;99.90
69418;DHT22;56610;48.872;2.400;2022-12-29T04:59:49;13.30;99.90
69418;DHT22;56610;48.872;2.400;2022-12-29T05:02:16;13.50;99.90
69418;DHT22;56610;48.872;2.400;2022-12-29T05:04:41;13.50;99.90
69418;DHT22;56610;48.872;2.400;2022-12-29T05:07:07;13.40;99.90
69418;DHT22;56610;48.872;2.400;2022-12-29T05:09:33;13.40;99.90
69418;DHT22;56610;48.872;2.400;2022-12-29T05:11:58;13.40;99.90
69418;DHT22;56610;48.872;2.400;2022-12-29T05:14:24;13.20;99.90
69418;DHT22;56610;48.872;2.400;2022-12-29T05:16:49;13.30;99.90
69418;DHT22;56610;48.872;2.400;2022-12-29T05:19:15;13.20;99.90
69418;DHT22;56610;48.872;2.400;2022-12-29T05:21:42;13.20;99.90
69418;DHT22;56610;48.872;2.400;2022-12-29T05:24:08;13.30;99.90
69418;DHT22;56610;48.872;2.400;2022-12-29T05:26:33;13.30;99.90
69418;DHT22;56610;48.872;2.400;2022-12-29T05:28:59;13.30;99.90
69418;DHT22;56610;48.872;2.400;2022-12-29T05:31:25;13.40;99.90
69418;DHT22;56610;48.872;2.400;2022-12-29T05:33:50;13.50;99.90
69418;DHT22;56610;48.872;2.400;2022-12-29T05:36:16;13.40;99.90
69418;DHT22;56610;48.872;2.400;2022-12-29T05:38:42;13.40;99.90
69418;DHT22;56610;48.872;2.400;2022-12-29T05:41:07;13.30;99.90
69418;DHT22;56610;48.872;2.400;2022-12-29T05:43:33;13.20;99.90
69418;DHT22;56610;48.872;2.400;2022-12-29T05:45:59;13.20;99.90
69418;DHT22;56610;48.872;2.400;2022-12-29T05:48:24;13.10;99.90
69418;DHT22;56610;48.872;2.400;2022-12-29T05:50:51;13.10;99.90
69418;DHT22;56610;48.872;2.400;2022-12-29T05:53:17;13.00;99.90
69418;DHT22;56610;48.872;2.400;2022-12-29T05:55:43;13.00;99.90
69418;DHT22;56610;48.872;2.400;2022-12-29T05:58:09;13.00;99.90
69418;DHT22;56610;48.872;2.400;2022-12-29T06:00:35;13.00;99.90
69418;DHT22;56610;48.872;2.400;2022-12-29T06:03:00;13.00;99.90
69418;DHT22;56610;48.872;2.400;2022-12-29T06:05:26;12.90;99.90
69418;DHT22;56610;48.872;2.400;2022-12-29T06:07:51;12.90;99.90
69418;DHT22;56610;48.872;2.400;2022-12-29T06:10:17;12.90;99.90
69418;DHT22;56610;48.872;2.400;2022-12-29T06:12:43;12.90;99.90
69418;DHT22;56610;48.872;2.400;2022-12-29T06:15:09;12.90;99.90
69418;DHT22;56610;48.872;2.400;2022-12-29T06:17:34;12.90;99.90
69418;DHT22;56610;48.872;2.400;2022-12-29T06:20:00;12.80;99.90
69418;DHT22;56610;48.872;2.400;2022-12-29T06:22:26;12.80;99.90
69418;DHT22;56610;48.872;2.400;2022-12-29T06:24:51;12.90;99.90
69418;DHT22;56610;48.872;2.400;2022-12-29T06:27:17;12.90;99.90
69418;DHT22;56610;48.872;2.400;2022-12-29T06:29:43;12.90;99.90
69418;DHT22;56610;48.872;2.400;2022-12-29T06:32:09;12.80;99.90
69418;DHT22;56610;48.872;2.400;2022-12-29T06:34:34;12.80;99.90
69418;DHT22;56610;48.872;2.400;2022-12-29T06:37:00;12.80;99.90
69418;DHT22;56610;48.872;2.400;2022-12-29T06:39:26;12.70;99.90
69418;DHT22;56610;48.872;2.400;2022-12-29T06:41:53;12.60;99.90
69418;DHT22;56610;48.872;2.400;2022-12-29T06:44:20;12.70;99.90
69418;DHT22;56610;48.872;2.400;2022-12-29T06:46:45;12.70;99.90
69418;DHT22;56610;48.872;2.400;2022-12-29T06:49:11;12.70;99.90
69418;DHT22;56610;48.872;2.400;2022-12-29T06:51:36;12.80;99.90
69418;DHT22;56610;48.872;2.400;2022-12-29T06:54:02;12.70;99.90
69418;DHT22;56610;48.872;2.400;2022-12-29T06:56:28;12.70;99.90
69418;DHT22;56610;48.872;2.400;2022-12-29T06:58:53;12.70;99.90
69418;DHT22;56610;48.872;2.400;2022-12-29T07:01:19;12.80;99.90
69418;DHT22;56610;48.872;2.400;2022-12-29T07:03:44;12.80;99.90
69418;DHT22;56610;48.872;2.400;2022-12-29T07:06:10;12.70;99.90
69418;DHT22;56610;48.872;2.400;2022-12-29T07:08:35;12.70;99.90
69418;DHT22;56610;48.872;2.400;2022-12-29T07:11:01;12.60;99.90
69418;DHT22;56610;48.872;2.400;2022-12-29T07:13:27;12.50;99.90
69418;DHT22;56610;48.872;2.400;2022-12-29T07:15:52;12.60;99.90
69418;DHT22;56610;48.872;2.400;2022-12-29T07:18:18;12.60;99.90
69418;DHT22;56610;48.872;2.400;2022-12-29T07:20:44;12.50;99.90
69418;DHT22;56610;48.872;2.400;2022-12-29T07:23:09;12.50;99.90
69418;DHT22;56610;48.872;2.400;2022-12-29T07:25:35;12.50;99.90
69418;DHT22;56610;48.872;2.400;2022-12-29T07:28:02;12.50;99.90
69418;DHT22;56610;48.872;2.400;2022-12-29T07:30:27;12.50;99.90
69418;DHT22;56610;48.872;2.400;2022-12-29T07:32:53;12.50;99.90
69418;DHT22;56610;48.872;2.400;2022-12-29T07:35:18;12.60;99.90
69418;DHT22;56610;48.872;2.400;2022-12-29T07:37:44;12.50;99.90
69418;DHT22;56610;48.872;2.400;2022-12-29T07:40:10;12.60;99.90
69418;DHT22;56610;48.872;2.400;2022-12-29T07:42:36;12.60;99.90
69418;DHT22;56610;48.872;2.400;2022-12-29T07:45:02;12.60;99.90
69418;DHT22;56610;48.872;2.400;2022-12-29T07:47:28;12.50;99.90
69418;DHT22;56610;48.872;2.400;2022-12-29T07:49:53;12.50;99.90
69418;DHT22;56610;48.872;2.400;2022-12-29T07:52:19;12.40;99.90
69418;DHT22;56610;48.872;2.400;2022-12-29T07:54:44;12.30;99.90
69418;DHT22;56610;48.872;2.400;2022-12-29T07:57:10;12.40;99.90
69418;DHT22;56610;48.872;2.400;2022-12-29T07:59:36;12.40;99.90
69418;DHT22;56610;48.872;2.400;2022-12-29T08:02:01;12.40;99.90
69418;DHT22;56610;48.872;2.400;2022-12-29T08:04:27;12.40;99.90
69418;DHT22;56610;48.872;2.400;2022-12-29T08:06:52;12.40;99.90
69418;DHT22;56610;48.872;2.400;2022-12-29T08:09:18;12.40;99.90
69418;DHT22;56610;48.872;2.400;2022-12-29T08:11:44;12.50;99.90
69418;DHT22;56610;48.872;2.400;2022-12-29T08:14:10;12.50;99.90
69418;DHT22;56610;48.872;2.400;2022-12-29T08:16:36;12.50;99.90
69418;DHT22;56610;48.872;2.400;2022-12-29T08:19:02;12.60;99.90
69418;DHT22;56610;48.872;2.400;2022-12-29T08:21:29;12.70;99.90
69418;DHT22;56610;48.872;2.400;2022-12-29T08:23:54;12.70;99.90
69418;DHT22;56610;48.872;2.400;2022-12-29T08:26:20;12.70;99.90
69418;DHT22;56610;48.872;2.400;2022-12-29T08:28:46;12.60;99.90
69418;DHT22;56610;48.872;2.400;2022-12-29T08:31:12;12.50;99.90
69418;DHT22;56610;48.872;2.400;2022-12-29T08:33:37;12.50;99.90
69418;DHT22;56610;48.872;2.400;2022-12-29T08:36:05;12.50;99.90
69418;DHT22;56610;48.872;2.400;2022-12-29T08:38:31;12.40;99.90
69418;DHT22;56610;48.872;2.400;2022-12-29T08:40:58;12.50;99.90
69418;DHT22;56610;48.872;2.400;2022-12-29T08:43:23;12.50;99.90
69418;DHT22;56610;48.872;2.400;2022-12-29T08:45:49;12.50;99.90
69418;DHT22;56610;48.872;2.400;2022-12-29T08:48:15;12.50;99.90
69418;DHT22;56610;48.872;2.400;2022-12-29T08:50:45;12.50;99.90
69418;DHT22;56610;48.872;2.400;2022-12-29T08:53:11;12.50;99.90
69418;DHT22;56610;48.872;2.400;2022-12-29T08:55:37;12.50;99.90
69418;DHT22;56610;48.872;2.400;2022-12-29T08:58:02;12.50;99.90
69418;DHT22;56610;48.872;2.400;2022-12-29T09:00:28;12.50;99.90
69418;DHT22;56610;48.872;2.400;2022-12-29T09:02:54;12.70;99.90
69418;DHT22;56610;48.872;2.400;2022-12-29T09:05:19;12.70;99.90
69418;DHT22;56610;48.872;2.400;2022-12-29T09:07:45;12.70;99.90
69418;DHT22;56610;48.872;2.400;2022-12-29T09:10:10;12.80;99.90
69418;DHT22;56610;48.872;2.400;2022-12-29T09:12:36;12.70;99.90
69418;DHT22;56610;48.872;2.400;2022-12-29T09:15:02;12.70;99.90
69418;DHT22;56610;48.872;2.400;2022-12-29T09:17:28;12.70;99.90
69418;DHT22;56610;48.872;2.400;2022-12-29T09:20:14;12.70;99.90
69418;DHT22;56610;48.872;2.400;2022-12-29T09:22:41;12.70;99.90
69418;DHT22;56610;48.872;2.400;2022-12-29T09:25:07;12.80;99.90
69418;DHT22;56610;48.872;2.400;2022-12-29T09:27:34;12.70;99.90
69418;DHT22;56610;48.872;2.400;2022-12-29T09:30:00;12.70;99.90
69418;DHT22;56610;48.872;2.400;2022-12-29T09:32:25;12.70;99.90
69418;DHT22;56610;48.872;2.400;2022-12-29T09:34:51;12.70;99.90
69418;DHT22;56610;48.872;2.400;2022-12-29T09:37:16;12.80;99.90
69418;DHT22;56610;48.872;2.400;2022-12-29T09:39:42;12.90;99.90
69418;DHT22;56610;48.872;2.400;2022-12-29T09:42:18;13.00;99.90
69418;DHT22;56610;48.872;2.400;2022-12-29T09:45:05;13.00;99.90
69418;DHT22;56610;48.872;2.400;2022-12-29T09:47:36;13.00;99.90
69418;DHT22;56610;48.872;2.400;2022-12-29T09:50:14;12.90;99.90
69418;DHT22;56610;48.872;2.400;2022-12-29T09:52:47;12.80;99.90
69418;DHT22;56610;48.872;2.400;2022-12-29T09:55:23;12.80;99.90
69418;DHT22;56610;48.872;2.400;2022-12-29T09:58:45;12.80;99.90
69418;DHT22;56610;48.872;2.400;2022-12-29T10:04:00;12.90;99.90
69418;DHT22;56610;48.872;2.400;2022-12-29T10:06:39;12.80;99.90
69418;DHT22;56610;48.872;2.400;2022-12-29T10:12:03;12.80;99.90
69418;DHT22;56610;48.872;2.400;2022-12-29T10:20:25;12.90;99.90
69418;DHT22;56610;48.872;2.400;2022-12-29T10:23:02;13.00;99.90
69418;DHT22;56610;48.872;2.400;2022-12-29T10:25:38;13.20;99.90
69418;DHT22;56610;48.872;2.400;2022-12-29T10:28:22;13.30;99.90
69418;DHT22;56610;48.872;2.400;2022-12-29T10:30:49;13.40;99.90
69418;DHT22;56610;48.872;2.400;2022-12-29T10:33:39;13.60;99.90
69418;DHT22;56610;48.872;2.400;2022-12-29T10:36:35;13.50;99.90
69418;DHT22;56610;48.872;2.400;2022-12-29T10:41:58;13.30;99.90
69418;DHT22;56610;48.872;2.400;2022-12-29T10:44:27;13.30;99.90
69418;DHT22;56610;48.872;2.400;2022-12-29T10:46:58;13.30;99.90
69418;DHT22;56610;48.872;2.400;2022-12-29T10:49:27;13.30;99.90
69418;DHT22;56610;48.872;2.400;2022-12-29T10:51:57;13.20;99.90
69418;DHT22;56610;48.872;2.400;2022-12-29T10:54:36;13.40;99.90
69418;DHT22;56610;48.872;2.400;2022-12-29T10:57:09;13.50;99.90
69418;DHT22;56610;48.872;2.400;2022-12-29T10:59:37;13.50;99.90
69418;DHT22;56610;48.872;2.400;2022-12-29T11:05:06;13.70;99.90
69418;DHT22;56610;48.872;2.400;2022-12-29T11:07:36;13.80;99.90
69418;DHT22;56610;48.872;2.400;2022-12-29T11:13:17;14.30;99.90
69418;DHT22;56610;48.872;2.400;2022-12-29T11:15:48;14.60;99.90
69418;DHT22;56610;48.872;2.400;2022-12-29T11:18:19;14.40;99.90
69418;DHT22;56610;48.872;2.400;2022-12-29T11:20:46;14.30;99.90
69418;DHT22;56610;48.872;2.400;2022-12-29T11:23:31;14.20;99.90
69418;DHT22;56610;48.872;2.400;2022-12-29T11:26:16;13.90;99.90
69418;DHT22;56610;48.872;2.400;2022-12-29T11:31:31;14.00;99.90
69418;DHT22;56610;48.872;2.400;2022-12-29T11:34:06;14.10;99.90
69418;DHT22;56610;48.872;2.400;2022-12-29T11:36:34;14.10;99.90
69418;DHT22;56610;48.872;2.400;2022-12-29T11:39:00;13.90;99.90
69418;DHT22;56610;48.872;2.400;2022-12-29T11:41:28;14.00;99.90
69418;DHT22;56610;48.872;2.400;2022-12-29T11:44:00;14.00;99.90
69418;DHT22;56610;48.872;2.400;2022-12-29T11:46:29;14.20;99.90
69418;DHT22;56610;48.872;2.400;2022-12-29T11:48:58;14.10;99.90
69418;DHT22;56610;48.872;2.400;2022-12-29T11:51:43;14.20;99.90
69418;DHT22;56610;48.872;2.400;2022-12-29T11:54:26;14.30;99.90
69418;DHT22;56610;48.872;2.400;2022-12-29T11:56:54;14.40;99.90
69418;DHT22;56610;48.872;2.400;2022-12-29T12:02:08;14.60;99.90
69418;DHT22;56610;48.872;2.400;2022-12-29T12:04:37;14.50;99.90
69418;DHT22;56610;48.872;2.400;2022-12-29T12:07:20;14.60;99.90
69418;DHT22;56610;48.872;2.400;2022-12-29T12:10:24;14.60;99.90
69418;DHT22;56610;48.872;2.400;2022-12-29T12:12:56;14.80;99.90
69418;DHT22;56610;48.872;2.400;2022-12-29T12:15:36;14.80;99.90
69418;DHT22;56610;48.872;2.400;2022-12-29T12:18:05;14.90;99.90
69418;DHT22;56610;48.872;2.400;2022-12-29T12:20:44;14.60;99.90
69418;DHT22;56610;48.872;2.400;2022-12-29T12:23:27;14.70;99.90
69418;DHT22;56610;48.872;2.400;2022-12-29T12:30:59;14.40;99.90
69418;DHT22;56610;48.872;2.400;2022-12-29T12:33:36;14.40;99.90
69418;DHT22;56610;48.872;2.400;2022-12-29T12:44:20;14.20;99.90
69418;DHT22;56610;48.872;2.400;2022-12-29T12:50:11;14.40;99.90
69418;DHT22;56610;48.872;2.400;2022-12-29T12:55:42;14.50;99.90
69418;DHT22;56610;48.872;2.400;2022-12-29T12:58:44;14.70;99.90
69418;DHT22;56610;48.872;2.400;2022-12-29T13:12:55;14.30;99.90
69418;DHT22;56610;48.872;2.400;2022-12-29T13:18:32;14.10;99.90
69418;DHT22;56610;48.872;2.400;2022-12-29T13:21:11;14.20;99.90
69418;DHT22;56610;48.872;2.400;2022-12-29T13:26:36;14.10;99.90
69418;DHT22;56610;48.872;2.400;2022-12-29T13:37:46;13.90;99.90
69418;DHT22;56610;48.872;2.400;2022-12-29T13:40:17;14.00;99.90
69418;DHT22;56610;48.872;2.400;2022-12-29T13:42:44;14.00;99.90
69418;DHT22;56610;48.872;2.400;2022-12-29T13:45:15;14.00;99.90
69418;DHT22;56610;48.872;2.400;2022-12-29T13:50:22;14.20;99.90
69418;DHT22;56610;48.872;2.400;2022-12-29T13:58:50;14.10;99.90
69418;DHT22;56610;48.872;2.400;2022-12-29T14:01:30;14.00;99.90
69418;DHT22;56610;48.872;2.400;2022-12-29T14:04:00;14.00;99.90
69418;DHT22;56610;48.872;2.400;2022-12-29T14:06:33;14.10;99.90
69418;DHT22;56610;48.872;2.400;2022-12-29T14:09:04;14.10;99.90
69418;DHT22;56610;48.872;2.400;2022-12-29T14:11:32;14.10;99.90
69418;DHT22;56610;48.872;2.400;2022-12-29T14:13:59;14.10;99.90
69418;DHT22;56610;48.872;2.400;2022-12-29T14:16:35;14.30;99.90
69418;DHT22;56610;48.872;2.400;2022-12-29T14:22:05;14.30;99.90
69418;DHT22;56610;48.872;2.400;2022-12-29T14:34:51;14.50;99.90
69418;DHT22;56610;48.872;2.400;2022-12-29T14:37:26;14.30;99.90
69418;DHT22;56610;48.872;2.400;2022-12-29T14:40:19;14.20;99.90
69418;DHT22;56610;48.872;2.400;2022-12-29T14:42:49;14.10;99.90
69418;DHT22;56610;48.872;2.400;2022-12-29T14:47:49;14.00;99.90
69418;DHT22;56610;48.872;2.400;2022-12-29T14:50:35;14.10;99.90
69418;DHT22;56610;48.872;2.400;2022-12-29T14:53:04;14.00;99.90
69418;DHT22;56610;48.872;2.400;2022-12-29T14:55:47;14.00;99.90
69418;DHT22;56610;48.872;2.400;2022-12-29T14:58:20;14.00;99.90
69418;DHT22;56610;48.872;2.400;2022-12-29T15:00:47;14.10;99.90
69418;DHT22;56610;48.872;2.400;2022-12-29T15:08:18;14.10;99.90
69418;DHT22;56610;48.872;2.400;2022-12-29T15:11:14;14.20;99.90
69418;DHT22;56610;48.872;2.400;2022-12-29T15:13:42;14.30;99.90
69418;DHT22;56610;48.872;2.400;2022-12-29T15:16:32;14.30;99.90
69418;DHT22;56610;48.872;2.400;2022-12-29T15:18:58;14.20;99.90
69418;DHT22;56610;48.872;2.400;2022-12-29T15:21:30;14.30;99.90
69418;DHT22;56610;48.872;2.400;2022-12-29T15:23:57;14.30;99.90
69418;DHT22;56610;48.872;2.400;2022-12-29T15:26:23;14.30;99.90
69418;DHT22;56610;48.872;2.400;2022-12-29T15:29:01;14.30;99.90
69418;DHT22;56610;48.872;2.400;2022-12-29T15:31:27;14.30;99.90
69418;DHT22;56610;48.872;2.400;2022-12-29T15:34:01;14.30;99.90
69418;DHT22;56610;48.872;2.400;2022-12-29T15:36:29;14.30;99.90
69418;DHT22;56610;48.872;2.400;2022-12-29T15:38:54;14.30;99.90
69418;DHT22;56610;48.872;2.400;2022-12-29T15:41:40;14.30;99.90
69418;DHT22;56610;48.872;2.400;2022-12-29T15:46:55;14.20;99.90
69418;DHT22;56610;48.872;2.400;2022-12-29T15:49:21;14.20;99.90
69418;DHT22;56610;48.872;2.400;2022-12-29T15:51:49;14.40;99.90
69418;DHT22;56610;48.872;2.400;2022-12-29T15:54:21;14.40;99.90
69418;DHT22;56610;48.872;2.400;2022-12-29T15:56:47;14.40;99.90
69418;DHT22;56610;48.872;2.400;2022-12-29T15:59:28;14.40;99.90
69418;DHT22;56610;48.872;2.400;2022-12-29T16:01:55;14.40;99.90
69418;DHT22;56610;48.872;2.400;2022-12-29T16:04:21;14.30;99.90
69418;DHT22;56610;48.872;2.400;2022-12-29T16:06:57;14.20;99.90
69418;DHT22;56610;48.872;2.400;2022-12-29T16:09:41;14.10;99.90
69418;DHT22;56610;48.872;2.400;2022-12-29T16:12:40;14.20;99.90
69418;DHT22;56610;48.872;2.400;2022-12-29T16:15:07;14.00;99.90
69418;DHT22;56610;48.872;2.400;2022-12-29T16:17:48;14.00;99.90
69418;DHT22;56610;48.872;2.400;2022-12-29T16:20:21;13.90;99.90
69418;DHT22;56610;48.872;2.400;2022-12-29T16:22:52;14.00;99.90
69418;DHT22;56610;48.872;2.400;2022-12-29T16:25:22;14.00;99.90
69418;DHT22;56610;48.872;2.400;2022-12-29T16:27:50;14.00;99.90
69418;DHT22;56610;48.872;2.400;2022-12-29T16:32:52;14.00;99.90
69418;DHT22;56610;48.872;2.400;2022-12-29T16:35:24;14.00;99.90
69418;DHT22;56610;48.872;2.400;2022-12-29T16:38:14;14.00;99.90
69418;DHT22;56610;48.872;2.400;2022-12-29T16:41:01;13.80;99.90
69418;DHT22;56610;48.872;2.400;2022-12-29T16:43:35;13.90;99.90
69418;DHT22;56610;48.872;2.400;2022-12-29T16:46:25;14.00;99.90
69418;DHT22;56610;48.872;2.400;2022-12-29T16:48:54;14.10;99.90
69418;DHT22;56610;48.872;2.400;2022-12-29T16:51:30;14.20;99.90
69418;DHT22;56610;48.872;2.400;2022-12-29T16:53:56;14.20;99.90
69418;DHT22;56610;48.872;2.400;2022-12-29T16:56:25;14.30;99.90
69418;DHT22;56610;48.872;2.400;2022-12-29T16:59:02;14.00;99.90
69418;DHT22;56610;48.872;2.400;2022-12-29T17:01:29;13.90;99.90
69418;DHT22;56610;48.872;2.400;2022-12-29T17:03:59;13.70;99.90
69418;DHT22;56610;48.872;2.400;2022-12-29T17:06:25;13.70;99.90
69418;DHT22;56610;48.872;2.400;2022-12-29T17:08:51;13.70;99.90
69418;DHT22;56610;48.872;2.400;2022-12-29T17:11:28;13.60;99.90
69418;DHT22;56610;48.872;2.400;2022-12-29T17:16:57;13.50;99.90
69418;DHT22;56610;48.872;2.400;2022-12-29T17:19:33;13.50;99.90
69418;DHT22;56610;48.872;2.400;2022-12-29T17:21:59;13.50;99.90
69418;DHT22;56610;48.872;2.400;2022-12-29T17:24:25;13.50;99.90
69418;DHT22;56610;48.872;2.400;2022-12-29T17:26:57;13.50;99.90
69418;DHT22;56610;48.872;2.400;2022-12-29T17:29:33;13.40;99.90
69418;DHT22;56610;48.872;2.400;2022-12-29T17:32:02;13.40;99.90
69418;DHT22;56610;48.872;2.400;2022-12-29T17:34:28;13.40;99.90
69418;DHT22;56610;48.872;2.400;2022-12-29T17:36:54;13.50;99.90
69418;DHT22;56610;48.872;2.400;2022-12-29T17:39:20;13.70;99.90
69418;DHT22;56610;48.872;2.400;2022-12-29T17:41:45;13.60;99.90
69418;DHT22;56610;48.872;2.400;2022-12-29T17:44:20;13.70;99.90
69418;DHT22;56610;48.872;2.400;2022-12-29T17:46:47;13.90;99.90
69418;DHT22;56610;48.872;2.400;2022-12-29T17:49:16;13.90;99.90
69418;DHT22;56610;48.872;2.400;2022-12-29T17:51:43;13.70;99.90
69418;DHT22;56610;48.872;2.400;2022-12-29T17:54:21;13.50;99.90
69418;DHT22;56610;48.872;2.400;2022-12-29T17:56:47;13.20;99.90
69418;DHT22;56610;48.872;2.400;2022-12-29T17:59:13;13.10;99.90
69418;DHT22;56610;48.872;2.400;2022-12-29T18:01:40;13.00;99.90
69418;DHT22;56610;48.872;2.400;2022-12-29T18:04:07;13.00;99.90
69418;DHT22;56610;48.872;2.400;2022-12-29T18:06:34;13.10;99.90
69418;DHT22;56610;48.872;2.400;2022-12-29T18:09:00;13.00;99.90
69418;DHT22;56610;48.872;2.400;2022-12-29T18:11:26;13.00;99.90
69418;DHT22;56610;48.872;2.400;2022-12-29T18:13:52;13.10;99.90